This is the latest recevied weather packets stored in our database for station/object W4TTU-1. If no packets are shown the sender has not sent any weather packets the latest 10 day(s).
| Time | Temp. | Humidity | Pressure | Rain* | Wind** | Luminosity | Snow |
|---|---|---|---|---|---|---|---|
| 1778095160 | 24.44° C | 31% | 844.9 hPa | 0 mm | - | - | - |
| 1778090658 | 18.33° C | 37% | 846.3 hPa | 0 mm | - | - | - |
| 1778089757 | 16.67° C | 39% | 846.7 hPa | 0 mm | - | - | - |
| 1778088856 | 15° C | 40% | 847 hPa | 0 mm | - | - | - |
| 1778087956 | 13.33° C | 41% | 847.2 hPa | 0 mm | - | - | - |
| 1778087055 | 12.22° C | 41% | 847.4 hPa | 0 mm | - | - | - |
| 1778086155 | 11.11° C | 41% | 847.5 hPa | 0 mm | - | - | - |
| 1778085254 | 9.44° C | 43% | 847.7 hPa | 0 mm | - | - | - |
| 1778084354 | 8.33° C | 43% | 847.9 hPa | 0 mm | - | - | - |
| 1778082553 | 5.56° C | 44% | 848.3 hPa | 0 mm | - | - | - |
| 1778081652 | 4.44° C | 44% | 848.9 hPa | 0 mm | - | - | - |
| 1778080752 | 3.33° C | 45% | 848.9 hPa | 0 mm | - | - | - |
| 1778078951 | 1.11° C | 46% | 849.3 hPa | 0 mm | - | - | - |
| 1778078050 | 0° C | 46% | 849.6 hPa | 0 mm | - | - | - |
| 1778077149 | -1.11° C | 46% | 849.8 hPa | 0 mm | - | - | - |
| 1778076249 | -2.22° C | 44% | 849.9 hPa | 0 mm | - | - | - |
| 1778075349 | -3.33° C | 41% | 850 hPa | 0 mm | - | - | - |
| 1778074448 | -3.89° C | 38% | 850.1 hPa | 0 mm | - | - | - |
| 1778073547 | -4.44° C | 37% | 850.1 hPa | 0 mm | - | - | - |
| 1778072647 | -4.44° C | 38% | 850.1 hPa | 0 mm | - | - | - |
| 1778071747 | -4.44° C | 37% | 849.9 hPa | 0 mm | - | - | - |
| 1778070846 | -4.44° C | 37% | 849.8 hPa | 0 mm | - | - | - |
| 1778069947 | -4.44° C | 35% | 849.7 hPa | 0 mm | - | - | - |
| 1778069045 | -3.89° C | 35% | 849.6 hPa | 0 mm | - | - | - |
| 1778067244 | -3.89° C | 37% | 849.6 hPa | 0 mm | - | - | - |
* Rain since midnight (hover to see other rain measurements)
** Current wind speed in m/s (hover to see current wind gust speed)